TUI8NB LGKO-EDDL
Flight info
| Callsign | TUI8NB |
|---|---|
| Flight time | N/A |
| Altitude | 38000 |
| Route | LARKI UL609 MES DCT EVIVI DCT OKANA DCT BGD DCT NIVIS DCT BABIT DCT SOGMO DCT SASAL DCT DEXIT DCT TESDU DCT AMETU T852 TINSA T854 DOMUX DOMUX1A |
| Aircraft | B738/M-SDE2E3FGHIRWXY/LB1 |
Departure
| Time | 2026-05-04 18:00 |
|---|---|
| Airport | Kos International Airport "Ippokratis" (LGKO) |
Arrival
| Time | N/A |
|---|---|
| Airport | Düsseldorf Airport (EDDL) |
| Time | Latitude | Longitude | Altitude | Speed | Heading |
|---|---|---|---|---|---|
| 2026-05-04 17:24 | 36.80091 | 27.08954 | 421 ft | 0 kts | 88° |
| 2026-05-04 17:48 | 36.80090 | 27.08949 | 421 ft | 2 kts | 88° |
| 2026-05-04 17:48 | 36.80092 | 27.08931 | 421 ft | 2 kts | 103° |
| 2026-05-04 17:48 | 36.80096 | 27.08913 | 421 ft | 2 kts | 113° |
| 2026-05-04 17:48 | 36.80103 | 27.08897 | 421 ft | 2 kts | 124° |
| 2026-05-04 17:49 | 36.80112 | 27.08883 | 421 ft | 2 kts | 136° |
| 2026-05-04 17:49 | 36.80124 | 27.08871 | 421 ft | 2 kts | 143° |
| 2026-05-04 17:49 | 36.80135 | 27.08859 | 421 ft | 2 kts | 140° |
| 2026-05-04 17:49 | 36.80147 | 27.08847 | 421 ft | 2 kts | 141° |
| 2026-05-04 17:50 | 36.80157 | 27.08837 | 421 ft | 0 kts | 141° |
| 2026-05-04 17:50 | 36.80158 | 27.08837 | 421 ft | 0 kts | 141° |
| 2026-05-04 17:52 | 36.80127 | 27.08857 | 421 ft | 11 kts | 161° |
| 2026-05-04 17:52 | 36.80048 | 27.08896 | 421 ft | 11 kts | 151° |
| 2026-05-04 17:52 | 36.79976 | 27.08950 | 421 ft | 12 kts | 148° |
| 2026-05-04 17:52 | 36.79899 | 27.08982 | 421 ft | 10 kts | 178° |
| 2026-05-04 17:53 | 36.79829 | 27.08985 | 421 ft | 9 kts | 177° |
| 2026-05-04 17:53 | 36.79803 | 27.08986 | 421 ft | 0 kts | 178° |
| 2026-05-04 17:56 | 36.79800 | 27.08986 | 421 ft | 3 kts | 178° |
| 2026-05-04 17:57 | 36.79731 | 27.08989 | 421 ft | 17 kts | 178° |
| 2026-05-04 17:57 | 36.79594 | 27.09011 | 421 ft | 18 kts | 153° |
| 2026-05-04 17:57 | 36.79463 | 27.09108 | 421 ft | 27 kts | 147° |
| 2026-05-04 17:57 | 36.79273 | 27.09259 | 421 ft | 33 kts | 148° |
| 2026-05-04 17:58 | 36.79078 | 27.09410 | 421 ft | 35 kts | 148° |
| 2026-05-04 17:58 | 36.78868 | 27.09575 | 421 ft | 34 kts | 148° |
| 2026-05-04 17:58 | 36.78678 | 27.09722 | 421 ft | 24 kts | 148° |
| 2026-05-04 17:58 | 36.78604 | 27.09801 | 421 ft | 9 kts | 118° |
| 2026-05-04 17:59 | 36.78568 | 27.09820 | 421 ft | 5 kts | 235° |
| 2026-05-04 17:59 | 36.78577 | 27.09794 | 421 ft | 3 kts | 338° |
| 2026-05-04 17:59 | 36.78611 | 27.09774 | 421 ft | 0 kts | 329° |
| 2026-05-04 18:00 | 36.78690 | 27.09713 | 421 ft | 45 kts | 328° |
| 2026-05-04 18:00 | 36.79172 | 27.09339 | 421 ft | 114 kts | 328° |
| 2026-05-04 18:00 | 36.80007 | 27.08691 | 470 ft | 163 kts | 329° |
| 2026-05-04 18:00 | 36.80952 | 27.07982 | 1179 ft | 160 kts | 330° |
| 2026-05-04 18:01 | 36.81720 | 27.06983 | 1666 ft | 182 kts | 292° |
| 2026-05-04 18:01 | 36.81793 | 27.05189 | 1739 ft | 230 kts | 271° |
| 2026-05-04 18:01 | 36.82010 | 27.03283 | 2648 ft | 222 kts | 297° |
| 2026-05-04 18:02 | 36.83781 | 27.00248 | 4493 ft | 219 kts | 306° |
| 2026-05-04 18:02 | 36.84461 | 26.98569 | 5383 ft | 221 kts | 302° |
| 2026-05-04 18:02 | 36.85211 | 26.96843 | 5931 ft | 235 kts | 306° |
| 2026-05-04 18:02 | 36.86087 | 26.95054 | 6477 ft | 251 kts | 306° |
| 2026-05-04 18:03 | 36.87001 | 26.93183 | 7308 ft | 255 kts | 306° |
| 2026-05-04 18:03 | 36.87931 | 26.91297 | 8132 ft | 258 kts | 305° |
| 2026-05-04 18:03 | 36.88923 | 26.89484 | 8942 ft | 258 kts | 316° |
| 2026-05-04 18:03 | 36.90434 | 26.88342 | 9695 ft | 261 kts | 346° |
| 2026-05-04 18:04 | 36.92248 | 26.88318 | 10502 ft | 267 kts | 2° |
| 2026-05-04 18:04 | 36.94159 | 26.88424 | 10854 ft | 284 kts | 355° |
| 2026-05-04 18:04 | 36.98132 | 26.88058 | 12269 ft | 293 kts | 355° |
| 2026-05-04 18:05 | 37.00147 | 26.87879 | 12999 ft | 296 kts | 355° |
| 2026-05-04 18:05 | 37.02201 | 26.87678 | 13704 ft | 299 kts | 355° |
| 2026-05-04 18:05 | 37.04286 | 26.87468 | 14416 ft | 301 kts | 355° |
| 2026-05-04 18:05 | 37.06367 | 26.87260 | 15102 ft | 304 kts | 354° |
| 2026-05-04 18:06 | 37.10598 | 26.86831 | 16420 ft | 309 kts | 354° |
| 2026-05-04 18:06 | 37.12726 | 26.86614 | 17059 ft | 311 kts | 353° |
| 2026-05-04 18:06 | 37.14882 | 26.86394 | 17681 ft | 314 kts | 353° |
| 2026-05-04 18:07 | 37.17039 | 26.86174 | 18280 ft | 317 kts | 353° |
| 2026-05-04 18:07 | 37.19228 | 26.85950 | 18868 ft | 319 kts | 353° |
| 2026-05-04 18:07 | 37.21458 | 26.85722 | 19443 ft | 322 kts | 353° |
| 2026-05-04 18:07 | 37.23677 | 26.85495 | 19996 ft | 324 kts | 354° |
| 2026-05-04 18:08 | 37.25935 | 26.85264 | 20552 ft | 326 kts | 354° |
| 2026-05-04 18:08 | 37.28178 | 26.85034 | 21152 ft | 327 kts | 354° |
| 2026-05-04 18:08 | 37.30444 | 26.84802 | 21590 ft | 331 kts | 354° |
| 2026-05-04 18:08 | 37.32745 | 26.84566 | 22061 ft | 334 kts | 355° |
| 2026-05-04 18:09 | 37.37407 | 26.84027 | 22939 ft | 341 kts | 351° |
| 2026-05-04 18:09 | 37.41766 | 26.81699 | 23743 ft | 353 kts | 325° |
| 2026-05-04 18:10 | 37.43654 | 26.79667 | 24182 ft | 357 kts | 322° |
| 2026-05-04 18:10 | 37.45515 | 26.77631 | 24556 ft | 360 kts | 323° |
| 2026-05-04 18:10 | 37.47425 | 26.75622 | 24936 ft | 363 kts | 323° |
| 2026-05-04 18:10 | 37.49361 | 26.73572 | 25304 ft | 366 kts | 323° |
| 2026-05-04 18:11 | 37.51320 | 26.71467 | 25681 ft | 369 kts | 323° |
| 2026-05-04 18:11 | 37.53260 | 26.69375 | 26038 ft | 372 kts | 323° |
| 2026-05-04 18:11 | 37.55213 | 26.67269 | 26386 ft | 375 kts | 323° |
| 2026-05-04 18:11 | 37.57209 | 26.65113 | 26730 ft | 377 kts | 323° |
| 2026-05-04 18:12 | 37.59200 | 26.62959 | 27062 ft | 380 kts | 323° |
| 2026-05-04 18:12 | 37.61188 | 26.60805 | 27382 ft | 383 kts | 323° |
| 2026-05-04 18:12 | 37.63227 | 26.58592 | 27701 ft | 385 kts | 323° |
| 2026-05-04 18:12 | 37.65246 | 26.56400 | 28005 ft | 388 kts | 323° |
| 2026-05-04 18:13 | 37.67291 | 26.54178 | 28304 ft | 391 kts | 323° |
| 2026-05-04 18:13 | 37.69339 | 26.51950 | 28595 ft | 393 kts | 323° |
| 2026-05-04 18:13 | 37.73500 | 26.47431 | 29157 ft | 398 kts | 323° |
| 2026-05-04 18:14 | 37.75615 | 26.45133 | 29428 ft | 400 kts | 323° |
| 2026-05-04 18:14 | 37.77725 | 26.42837 | 29708 ft | 402 kts | 323° |
| 2026-05-04 18:14 | 37.79820 | 26.40554 | 29964 ft | 404 kts | 323° |
| 2026-05-04 18:15 | 37.84085 | 26.35901 | 30542 ft | 407 kts | 323° |
| 2026-05-04 18:15 | 37.88383 | 26.31205 | 31088 ft | 409 kts | 322° |
| 2026-05-04 18:15 | 37.90504 | 26.28878 | 31347 ft | 410 kts | 322° |
| 2026-05-04 18:16 | 37.92676 | 26.26492 | 31610 ft | 411 kts | 322° |
| 2026-05-04 18:16 | 37.94805 | 26.24152 | 31854 ft | 412 kts | 322° |
| 2026-05-04 18:16 | 37.96985 | 26.21756 | 32053 ft | 414 kts | 322° |
| 2026-05-04 18:17 | 38.01306 | 26.16998 | 32597 ft | 414 kts | 322° |
| 2026-05-04 18:17 | 38.03485 | 26.14596 | 32828 ft | 415 kts | 322° |
| 2026-05-04 18:17 | 38.07819 | 26.09813 | 33268 ft | 416 kts | 321° |
| 2026-05-04 18:18 | 38.09993 | 26.07411 | 33471 ft | 417 kts | 321° |
| 2026-05-04 18:18 | 38.12180 | 26.04991 | 33683 ft | 418 kts | 321° |
| 2026-05-04 18:18 | 38.14371 | 26.02565 | 33882 ft | 419 kts | 321° |
| 2026-05-04 18:18 | 38.16569 | 26.00130 | 34164 ft | 418 kts | 321° |
| 2026-05-04 18:19 | 38.20867 | 25.95359 | 34812 ft | 413 kts | 321° |
| 2026-05-04 18:19 | 38.23038 | 25.92971 | 35084 ft | 411 kts | 322° |
| 2026-05-04 18:19 | 38.25312 | 25.90785 | 35343 ft | 408 kts | 328° |
| 2026-05-04 18:20 | 38.27702 | 25.88926 | 35533 ft | 408 kts | 331° |
| 2026-05-04 18:20 | 38.30147 | 25.87106 | 35782 ft | 407 kts | 331° |
| 2026-05-04 18:20 | 38.32574 | 25.85260 | 36012 ft | 406 kts | 330° |
| 2026-05-04 18:20 | 38.34977 | 25.83429 | 36098 ft | 409 kts | 330° |
| 2026-05-04 18:21 | 38.39878 | 25.79757 | 36102 ft | 407 kts | 331° |
| 2026-05-04 18:21 | 38.44732 | 25.76137 | 36102 ft | 405 kts | 331° |
| 2026-05-04 18:22 | 38.49585 | 25.72520 | 36103 ft | 405 kts | 331° |
| 2026-05-04 18:22 | 38.54434 | 25.68908 | 36102 ft | 406 kts | 331° |
| 2026-05-04 18:23 | 38.59314 | 25.65270 | 36102 ft | 406 kts | 331° |
| 2026-05-04 18:23 | 38.64172 | 25.61644 | 36102 ft | 406 kts | 331° |
| 2026-05-04 18:24 | 38.69032 | 25.58012 | 36102 ft | 406 kts | 331° |
| 2026-05-04 18:24 | 38.73854 | 25.54403 | 36102 ft | 406 kts | 331° |
| 2026-05-04 18:25 | 38.78718 | 25.50756 | 36102 ft | 407 kts | 332° |
| 2026-05-04 18:25 | 38.83598 | 25.47092 | 36102 ft | 408 kts | 332° |
| 2026-05-04 18:26 | 38.88470 | 25.43428 | 36072 ft | 408 kts | 332° |
| 2026-05-04 18:26 | 38.93353 | 25.39751 | 35938 ft | 409 kts | 332° |
| 2026-05-04 18:27 | 38.98227 | 25.36073 | 35833 ft | 408 kts | 332° |
| 2026-05-04 18:27 | 39.03121 | 25.32375 | 35832 ft | 408 kts | 331° |
| 2026-05-04 18:28 | 39.07982 | 25.28698 | 35832 ft | 409 kts | 331° |
| 2026-05-04 18:28 | 39.12861 | 25.24999 | 35832 ft | 409 kts | 331° |
| 2026-05-04 18:29 | 39.17785 | 25.21260 | 35832 ft | 410 kts | 331° |
| 2026-05-04 18:29 | 39.22671 | 25.17543 | 35832 ft | 410 kts | 331° |
| 2026-05-04 18:30 | 39.30000 | 25.11958 | 35833 ft | 410 kts | 331° |
| 2026-05-04 18:31 | 39.34895 | 25.08221 | 35832 ft | 411 kts | 331° |
| 2026-05-04 18:31 | 39.39782 | 25.04482 | 35933 ft | 409 kts | 331° |
| 2026-05-04 18:32 | 39.44658 | 25.00746 | 36066 ft | 409 kts | 331° |
| 2026-05-04 18:32 | 39.49551 | 24.96992 | 36075 ft | 410 kts | 331° |
| 2026-05-04 18:33 | 39.54443 | 24.93231 | 36075 ft | 409 kts | 331° |
| 2026-05-04 18:33 | 39.59301 | 24.89490 | 36075 ft | 409 kts | 331° |
| 2026-05-04 18:34 | 39.64186 | 24.85724 | 36075 ft | 409 kts | 331° |
| 2026-05-04 18:34 | 39.69029 | 24.81982 | 36075 ft | 409 kts | 331° |
| 2026-05-04 18:35 | 39.73909 | 24.78205 | 36075 ft | 409 kts | 331° |
| 2026-05-04 18:35 | 39.78792 | 24.74421 | 36075 ft | 411 kts | 331° |
| 2026-05-04 18:36 | 39.83682 | 24.70625 | 36075 ft | 412 kts | 331° |
| 2026-05-04 18:36 | 39.88600 | 24.66799 | 36075 ft | 412 kts | 331° |
| 2026-05-04 18:37 | 39.93490 | 24.62990 | 36075 ft | 411 kts | 331° |
| 2026-05-04 18:37 | 39.98382 | 24.59174 | 36075 ft | 411 kts | 331° |
| 2026-05-04 18:38 | 40.03251 | 24.55368 | 36075 ft | 411 kts | 331° |
| 2026-05-04 18:38 | 40.08142 | 24.51538 | 36075 ft | 411 kts | 331° |
| 2026-05-04 18:39 | 40.13042 | 24.47696 | 36075 ft | 411 kts | 331° |
| 2026-05-04 18:39 | 40.17902 | 24.43879 | 36075 ft | 411 kts | 331° |
| 2026-05-04 18:40 | 40.22797 | 24.40027 | 36075 ft | 411 kts | 331° |
| 2026-05-04 18:40 | 40.27691 | 24.36170 | 36048 ft | 414 kts | 330° |
| 2026-05-04 18:41 | 40.32619 | 24.32279 | 36048 ft | 417 kts | 330° |
| 2026-05-04 18:41 | 40.37585 | 24.28350 | 36048 ft | 416 kts | 330° |
| 2026-05-04 18:42 | 40.42527 | 24.24434 | 36048 ft | 415 kts | 330° |
| 2026-05-04 18:42 | 40.47424 | 24.20548 | 36048 ft | 414 kts | 330° |
| 2026-05-04 18:43 | 40.52351 | 24.16631 | 36048 ft | 415 kts | 330° |
| 2026-05-04 18:43 | 40.57262 | 24.12719 | 36048 ft | 415 kts | 330° |
| 2026-05-04 18:44 | 40.62161 | 24.08811 | 36048 ft | 415 kts | 330° |
| 2026-05-04 18:44 | 40.67098 | 24.04865 | 36048 ft | 415 kts | 330° |
| 2026-05-04 18:45 | 40.72016 | 24.00928 | 36048 ft | 415 kts | 330° |
| 2026-05-04 18:45 | 40.76929 | 23.96987 | 36047 ft | 416 kts | 330° |
| 2026-05-04 18:46 | 40.81871 | 23.93017 | 36048 ft | 420 kts | 330° |
| 2026-05-04 18:46 | 40.86825 | 23.89030 | 36048 ft | 419 kts | 330° |
| 2026-05-04 18:47 | 40.91786 | 23.85030 | 36048 ft | 417 kts | 330° |
| 2026-05-04 18:47 | 40.96703 | 23.81058 | 36048 ft | 418 kts | 330° |
| 2026-05-04 18:48 | 41.01655 | 23.77052 | 36048 ft | 418 kts | 330° |
| 2026-05-04 18:48 | 41.06612 | 23.73034 | 36048 ft | 417 kts | 330° |
| 2026-05-04 18:49 | 41.11523 | 23.69046 | 36048 ft | 417 kts | 330° |
| 2026-05-04 18:49 | 41.16439 | 23.65048 | 36048 ft | 417 kts | 330° |
| 2026-05-04 18:50 | 41.21378 | 23.61023 | 36048 ft | 418 kts | 330° |
| 2026-05-04 18:50 | 41.26332 | 23.56979 | 36047 ft | 418 kts | 330° |
| 2026-05-04 18:51 | 41.31271 | 23.52942 | 36076 ft | 420 kts | 330° |
| 2026-05-04 18:51 | 41.36236 | 23.48872 | 36065 ft | 421 kts | 330° |
| 2026-05-04 18:52 | 41.41222 | 23.44885 | 36047 ft | 419 kts | 334° |
| 2026-05-04 18:52 | 41.46458 | 23.41531 | 36075 ft | 419 kts | 336° |
| 2026-05-04 18:53 | 41.51690 | 23.38125 | 36075 ft | 419 kts | 335° |
| 2026-05-04 18:53 | 41.56898 | 23.34718 | 36095 ft | 418 kts | 335° |
| 2026-05-04 18:54 | 41.62083 | 23.31329 | 36102 ft | 419 kts | 335° |
| 2026-05-04 18:54 | 41.67319 | 23.27896 | 36102 ft | 419 kts | 335° |
| 2026-05-04 18:55 | 41.72524 | 23.24478 | 36102 ft | 418 kts | 335° |
| 2026-05-04 18:55 | 41.80326 | 23.19343 | 36102 ft | 419 kts | 335° |
| 2026-05-04 18:56 | 41.85550 | 23.15897 | 36102 ft | 421 kts | 335° |
| 2026-05-04 18:56 | 41.90786 | 23.12437 | 36102 ft | 420 kts | 335° |
| 2026-05-04 18:57 | 41.95992 | 23.08989 | 36102 ft | 420 kts | 335° |
| 2026-05-04 18:57 | 42.01225 | 23.05518 | 36102 ft | 420 kts | 335° |
| 2026-05-04 18:58 | 42.06451 | 23.02046 | 36102 ft | 420 kts | 335° |
| 2026-05-04 18:58 | 42.11666 | 22.98573 | 36102 ft | 421 kts | 335° |
| 2026-05-04 18:59 | 42.16915 | 22.95072 | 36102 ft | 421 kts | 335° |
| 2026-05-04 18:59 | 42.22137 | 22.91582 | 36102 ft | 421 kts | 335° |
| 2026-05-04 19:00 | 42.27329 | 22.88106 | 36102 ft | 421 kts | 335° |
| 2026-05-04 19:00 | 42.32582 | 22.84583 | 36102 ft | 422 kts | 335° |
| 2026-05-04 19:01 | 42.37834 | 22.81054 | 36102 ft | 422 kts | 335° |
| 2026-05-04 19:01 | 42.43066 | 22.77531 | 36102 ft | 422 kts | 335° |
| 2026-05-04 19:02 | 42.48293 | 22.74005 | 36103 ft | 421 kts | 335° |
| 2026-05-04 19:02 | 42.53512 | 22.70476 | 36102 ft | 420 kts | 335° |
| 2026-05-04 19:03 | 42.58647 | 22.66973 | 36102 ft | 414 kts | 332° |
| 2026-05-04 19:03 | 42.63783 | 22.63496 | 36103 ft | 415 kts | 333° |
| 2026-05-04 19:04 | 42.68975 | 22.59982 | 36102 ft | 417 kts | 333° |
| 2026-05-04 19:04 | 42.74128 | 22.56476 | 36102 ft | 417 kts | 333° |
| 2026-05-04 19:05 | 42.79299 | 22.52952 | 36102 ft | 418 kts | 333° |
| 2026-05-04 19:05 | 42.84388 | 22.49207 | 36101 ft | 418 kts | 326° |
| 2026-05-04 19:06 | 42.88987 | 22.44458 | 36075 ft | 417 kts | 322° |
| 2026-05-04 19:06 | 42.93378 | 22.39892 | 36075 ft | 417 kts | 323° |
| 2026-05-04 19:07 | 42.97952 | 22.35100 | 36075 ft | 417 kts | 322° |
| 2026-05-04 19:07 | 43.02540 | 22.30231 | 36075 ft | 417 kts | 321° |
| 2026-05-04 19:08 | 43.07046 | 22.25324 | 36075 ft | 417 kts | 321° |
| 2026-05-04 19:08 | 43.11545 | 22.20407 | 36074 ft | 414 kts | 320° |
| 2026-05-04 19:09 | 43.16043 | 22.15494 | 36075 ft | 413 kts | 320° |
| 2026-05-04 19:09 | 43.20538 | 22.10571 | 36075 ft | 414 kts | 320° |
| 2026-05-04 19:10 | 43.25014 | 22.05665 | 36075 ft | 414 kts | 320° |
| 2026-05-04 19:10 | 43.29497 | 22.00740 | 36075 ft | 416 kts | 321° |
| 2026-05-04 19:11 | 43.34028 | 21.95755 | 36075 ft | 417 kts | 321° |
| 2026-05-04 19:11 | 43.38500 | 21.90823 | 36075 ft | 416 kts | 321° |
| 2026-05-04 19:12 | 43.45262 | 21.83350 | 36075 ft | 416 kts | 321° |
| 2026-05-04 19:13 | 43.49736 | 21.78393 | 36075 ft | 416 kts | 321° |
| 2026-05-04 19:13 | 43.54230 | 21.73404 | 36075 ft | 415 kts | 321° |
| 2026-05-04 19:14 | 43.58691 | 21.68442 | 36074 ft | 411 kts | 321° |
| 2026-05-04 19:14 | 43.63111 | 21.63516 | 36075 ft | 410 kts | 321° |
| 2026-05-04 19:15 | 43.67541 | 21.58568 | 36075 ft | 411 kts | 321° |
| 2026-05-04 19:15 | 43.71961 | 21.53623 | 36075 ft | 412 kts | 322° |
| 2026-05-04 19:16 | 43.76402 | 21.48645 | 36075 ft | 412 kts | 322° |
| 2026-05-04 19:16 | 43.80840 | 21.43659 | 36075 ft | 413 kts | 322° |
| 2026-05-04 19:17 | 43.85278 | 21.38665 | 36075 ft | 413 kts | 322° |
| 2026-05-04 19:17 | 43.89752 | 21.33619 | 36102 ft | 414 kts | 322° |
| 2026-05-04 19:18 | 43.94199 | 21.28596 | 36102 ft | 415 kts | 322° |
| 2026-05-04 19:18 | 43.98649 | 21.23557 | 36103 ft | 414 kts | 322° |
| 2026-05-04 19:19 | 44.03088 | 21.18522 | 36102 ft | 411 kts | 322° |
| 2026-05-04 19:19 | 44.07509 | 21.13496 | 36102 ft | 411 kts | 322° |
| 2026-05-04 19:20 | 44.11922 | 21.08471 | 36102 ft | 412 kts | 322° |
| 2026-05-04 19:20 | 44.16352 | 21.03415 | 36102 ft | 412 kts | 322° |
| 2026-05-04 19:21 | 44.20756 | 20.98379 | 36102 ft | 411 kts | 322° |
| 2026-05-04 19:21 | 44.25166 | 20.93326 | 36102 ft | 411 kts | 322° |
| 2026-05-04 19:22 | 44.29573 | 20.88267 | 36102 ft | 413 kts | 322° |
| 2026-05-04 19:22 | 44.33986 | 20.83190 | 36102 ft | 413 kts | 322° |
| 2026-05-04 19:23 | 44.38395 | 20.78108 | 36076 ft | 413 kts | 322° |
| 2026-05-04 19:23 | 44.42817 | 20.73000 | 36075 ft | 412 kts | 322° |
| 2026-05-04 19:24 | 44.47217 | 20.67908 | 36075 ft | 411 kts | 322° |
| 2026-05-04 19:24 | 44.51595 | 20.62831 | 36075 ft | 411 kts | 322° |
| 2026-05-04 19:25 | 44.56009 | 20.57702 | 36075 ft | 412 kts | 322° |
| 2026-05-04 19:25 | 44.60398 | 20.52591 | 36075 ft | 412 kts | 322° |
| 2026-05-04 19:26 | 44.64784 | 20.47474 | 36075 ft | 412 kts | 322° |
| 2026-05-04 19:26 | 44.69161 | 20.42357 | 36075 ft | 412 kts | 322° |
| 2026-05-04 19:27 | 44.73558 | 20.37206 | 36075 ft | 412 kts | 322° |
| 2026-05-04 19:27 | 44.77944 | 20.32057 | 36075 ft | 413 kts | 321° |
| 2026-05-04 19:28 | 44.82322 | 20.26907 | 36075 ft | 414 kts | 321° |
| 2026-05-04 19:28 | 44.86723 | 20.21719 | 36075 ft | 412 kts | 321° |
| 2026-05-04 19:29 | 44.91093 | 20.16558 | 36075 ft | 411 kts | 321° |
| 2026-05-04 19:29 | 44.95481 | 20.11365 | 36075 ft | 412 kts | 321° |
| 2026-05-04 19:30 | 44.99848 | 20.06186 | 36075 ft | 412 kts | 321° |
| 2026-05-04 19:30 | 45.04230 | 20.00978 | 36075 ft | 412 kts | 321° |
| 2026-05-04 19:31 | 45.08595 | 19.95780 | 36075 ft | 412 kts | 321° |
| 2026-05-04 19:31 | 45.12963 | 19.90568 | 36075 ft | 412 kts | 321° |
| 2026-05-04 19:32 | 45.17303 | 19.85376 | 36075 ft | 412 kts | 321° |
| 2026-05-04 19:32 | 45.21685 | 19.80126 | 36075 ft | 412 kts | 321° |
| 2026-05-04 19:33 | 45.26043 | 19.74894 | 36075 ft | 412 kts | 321° |
| 2026-05-04 19:33 | 45.30388 | 19.69666 | 36075 ft | 412 kts | 320° |
| 2026-05-04 19:34 | 45.34771 | 19.64381 | 36074 ft | 412 kts | 320° |
| 2026-05-04 19:34 | 45.39108 | 19.59140 | 36048 ft | 412 kts | 320° |
| 2026-05-04 19:35 | 45.43457 | 19.53874 | 36048 ft | 412 kts | 320° |
| 2026-05-04 19:35 | 45.47799 | 19.48605 | 36048 ft | 412 kts | 320° |
| 2026-05-04 19:36 | 45.52161 | 19.43303 | 36048 ft | 412 kts | 320° |
| 2026-05-04 19:36 | 45.56518 | 19.37993 | 36048 ft | 412 kts | 320° |
| 2026-05-04 19:37 | 45.60841 | 19.32714 | 36048 ft | 412 kts | 320° |
| 2026-05-04 19:37 | 45.65200 | 19.27380 | 36048 ft | 412 kts | 320° |
| 2026-05-04 19:38 | 45.69540 | 19.22059 | 36048 ft | 413 kts | 320° |
| 2026-05-04 19:38 | 45.73876 | 19.16730 | 36048 ft | 413 kts | 320° |
| 2026-05-04 19:39 | 45.78206 | 19.11399 | 36048 ft | 413 kts | 319° |
| 2026-05-04 19:39 | 45.82570 | 19.06014 | 36048 ft | 413 kts | 320° |
| 2026-05-04 19:40 | 45.86892 | 19.00668 | 36048 ft | 413 kts | 319° |
| 2026-05-04 19:40 | 45.91231 | 18.95261 | 36048 ft | 413 kts | 318° |
| 2026-05-04 19:41 | 45.95065 | 18.89181 | 36048 ft | 414 kts | 309° |
| 2026-05-04 19:41 | 45.98776 | 18.82864 | 36048 ft | 414 kts | 312° |
| 2026-05-04 19:42 | 46.02543 | 18.76623 | 36048 ft | 414 kts | 311° |
| 2026-05-04 19:42 | 46.06273 | 18.70331 | 36048 ft | 415 kts | 311° |
| 2026-05-04 19:43 | 46.09999 | 18.64040 | 36048 ft | 415 kts | 311° |
| 2026-05-04 19:43 | 46.13719 | 18.57734 | 36048 ft | 415 kts | 311° |
| 2026-05-04 19:44 | 46.17449 | 18.51393 | 36048 ft | 415 kts | 311° |
| 2026-05-04 19:44 | 46.21166 | 18.45058 | 36048 ft | 415 kts | 311° |
| 2026-05-04 19:45 | 46.24879 | 18.38715 | 36048 ft | 415 kts | 311° |
| 2026-05-04 19:45 | 46.28594 | 18.32352 | 36048 ft | 415 kts | 310° |
| 2026-05-04 19:46 | 46.32305 | 18.25981 | 36048 ft | 415 kts | 310° |
| 2026-05-04 19:46 | 46.36010 | 18.19605 | 36048 ft | 415 kts | 310° |
| 2026-05-04 19:47 | 46.39716 | 18.13213 | 36048 ft | 415 kts | 310° |
| 2026-05-04 19:47 | 46.43409 | 18.06831 | 36048 ft | 415 kts | 310° |
| 2026-05-04 19:48 | 46.47097 | 18.00439 | 36048 ft | 415 kts | 310° |
| 2026-05-04 19:48 | 46.50791 | 17.94024 | 36045 ft | 415 kts | 310° |
| 2026-05-04 19:49 | 46.54487 | 17.87590 | 36021 ft | 415 kts | 310° |
| 2026-05-04 19:49 | 46.58176 | 17.81154 | 36021 ft | 415 kts | 310° |
| 2026-05-04 19:50 | 46.61847 | 17.74733 | 36021 ft | 415 kts | 310° |
| 2026-05-04 19:50 | 46.65519 | 17.68297 | 36021 ft | 415 kts | 310° |
| 2026-05-04 19:51 | 46.69191 | 17.61845 | 36021 ft | 415 kts | 310° |
| 2026-05-04 19:51 | 46.72859 | 17.55384 | 36021 ft | 415 kts | 310° |
| 2026-05-04 19:52 | 46.76530 | 17.48904 | 36021 ft | 415 kts | 310° |
| 2026-05-04 19:52 | 46.80199 | 17.42411 | 36021 ft | 415 kts | 310° |
| 2026-05-04 19:53 | 46.83856 | 17.35925 | 36021 ft | 415 kts | 310° |
| 2026-05-04 19:53 | 46.87507 | 17.29433 | 36021 ft | 415 kts | 309° |
| 2026-05-04 19:54 | 46.91167 | 17.22911 | 36021 ft | 415 kts | 309° |
| 2026-05-04 19:54 | 46.94804 | 17.16414 | 36021 ft | 414 kts | 309° |
| 2026-05-04 19:55 | 46.98422 | 17.09936 | 36021 ft | 414 kts | 309° |
| 2026-05-04 19:55 | 47.02045 | 17.03434 | 36021 ft | 414 kts | 309° |
| 2026-05-04 19:56 | 47.05676 | 16.96903 | 36016 ft | 414 kts | 309° |
| 2026-05-04 19:56 | 47.09314 | 16.90342 | 36020 ft | 413 kts | 309° |
| 2026-05-04 19:57 | 47.12926 | 16.83813 | 36021 ft | 414 kts | 309° |
| 2026-05-04 19:57 | 47.16528 | 16.77286 | 35997 ft | 414 kts | 309° |
| 2026-05-04 19:58 | 47.20159 | 16.70692 | 35994 ft | 414 kts | 308° |
| 2026-05-04 19:58 | 47.23750 | 16.64154 | 35994 ft | 414 kts | 308° |
| 2026-05-04 19:59 | 47.27355 | 16.57575 | 35971 ft | 414 kts | 308° |
| 2026-05-04 19:59 | 47.30971 | 16.50961 | 35971 ft | 414 kts | 308° |
| 2026-05-04 20:00 | 47.34568 | 16.44365 | 35971 ft | 414 kts | 308° |
| 2026-05-04 20:00 | 47.38166 | 16.37751 | 35971 ft | 414 kts | 308° |
| 2026-05-04 20:01 | 47.41755 | 16.31136 | 35971 ft | 414 kts | 308° |
| 2026-05-04 20:01 | 47.45338 | 16.24517 | 35971 ft | 414 kts | 308° |
| 2026-05-04 20:02 | 47.48904 | 16.17916 | 35985 ft | 416 kts | 307° |
| 2026-05-04 20:02 | 47.52512 | 16.11218 | 35984 ft | 416 kts | 307° |
| 2026-05-04 20:03 | 47.56100 | 16.04543 | 35984 ft | 416 kts | 307° |
| 2026-05-04 20:03 | 47.59674 | 15.97875 | 35984 ft | 415 kts | 307° |
| 2026-05-04 20:04 | 47.63244 | 15.91201 | 35984 ft | 415 kts | 307° |
| 2026-05-04 20:04 | 47.66821 | 15.84496 | 35985 ft | 415 kts | 307° |
| 2026-05-04 20:05 | 47.70396 | 15.77779 | 35984 ft | 415 kts | 307° |
| 2026-05-04 20:05 | 47.73959 | 15.71067 | 35972 ft | 416 kts | 307° |
| 2026-05-04 20:06 | 47.77531 | 15.64324 | 35920 ft | 415 kts | 307° |
| 2026-05-04 20:06 | 47.81055 | 15.57654 | 35920 ft | 411 kts | 307° |
| 2026-05-04 20:07 | 47.84593 | 15.50940 | 35920 ft | 413 kts | 307° |
| 2026-05-04 20:07 | 47.88117 | 15.44236 | 35920 ft | 414 kts | 307° |
| 2026-05-04 20:08 | 47.91647 | 15.37505 | 35919 ft | 413 kts | 307° |
| 2026-05-04 20:08 | 47.95178 | 15.30754 | 35920 ft | 413 kts | 306° |
| 2026-05-04 20:09 | 47.98679 | 15.24046 | 35918 ft | 413 kts | 306° |
| 2026-05-04 20:09 | 48.02217 | 15.17248 | 35913 ft | 415 kts | 306° |
| 2026-05-04 20:10 | 48.05747 | 15.10451 | 35913 ft | 416 kts | 306° |
| 2026-05-04 20:10 | 48.09269 | 15.03652 | 35913 ft | 415 kts | 306° |
| 2026-05-04 20:11 | 48.12797 | 14.96823 | 35913 ft | 415 kts | 306° |
| 2026-05-04 20:11 | 48.16316 | 14.89994 | 35913 ft | 415 kts | 306° |
| 2026-05-04 20:12 | 48.19830 | 14.83158 | 35913 ft | 415 kts | 306° |
| 2026-05-04 20:12 | 48.23349 | 14.76294 | 35913 ft | 415 kts | 306° |
| 2026-05-04 20:13 | 48.26843 | 14.69463 | 35913 ft | 416 kts | 306° |
| 2026-05-04 20:13 | 48.30363 | 14.62564 | 35913 ft | 415 kts | 306° |
| 2026-05-04 20:14 | 48.33847 | 14.55716 | 35913 ft | 415 kts | 306° |
| 2026-05-04 20:14 | 48.37329 | 14.48858 | 35913 ft | 415 kts | 306° |
| 2026-05-04 20:15 | 48.40808 | 14.41986 | 35913 ft | 415 kts | 306° |
| 2026-05-04 20:15 | 48.44286 | 14.35099 | 35913 ft | 415 kts | 306° |
| 2026-05-04 20:16 | 48.47782 | 14.28159 | 35913 ft | 415 kts | 305° |
| 2026-05-04 20:16 | 48.51239 | 14.21278 | 35912 ft | 415 kts | 305° |
| 2026-05-04 20:17 | 48.54731 | 14.14311 | 35913 ft | 417 kts | 305° |
| 2026-05-04 20:17 | 48.58203 | 14.07364 | 35913 ft | 417 kts | 305° |
| 2026-05-04 20:18 | 48.61680 | 14.00392 | 35913 ft | 416 kts | 305° |
| 2026-05-04 20:18 | 48.65144 | 13.93426 | 35913 ft | 416 kts | 305° |
| 2026-05-04 20:19 | 48.68623 | 13.86412 | 35913 ft | 416 kts | 305° |
| 2026-05-04 20:19 | 48.72077 | 13.79430 | 35913 ft | 416 kts | 305° |
| 2026-05-04 20:20 | 48.75536 | 13.72420 | 35913 ft | 417 kts | 304° |
| 2026-05-04 20:20 | 48.78912 | 13.65322 | 35913 ft | 417 kts | 302° |
| 2026-05-04 20:21 | 48.82220 | 13.58070 | 35913 ft | 418 kts | 302° |
| 2026-05-04 20:21 | 48.87188 | 13.47280 | 35939 ft | 416 kts | 302° |
| 2026-05-04 20:22 | 48.90479 | 13.40096 | 35940 ft | 417 kts | 302° |
| 2026-05-04 20:22 | 48.93772 | 13.32897 | 35940 ft | 417 kts | 302° |
| 2026-05-04 20:23 | 48.97065 | 13.25678 | 35940 ft | 416 kts | 302° |
| 2026-05-04 20:23 | 49.00354 | 13.18448 | 35940 ft | 418 kts | 302° |
| 2026-05-04 20:24 | 49.03675 | 13.11128 | 35940 ft | 419 kts | 302° |
| 2026-05-04 20:24 | 49.06974 | 13.03840 | 35940 ft | 419 kts | 302° |
| 2026-05-04 20:25 | 49.10261 | 12.96555 | 35940 ft | 418 kts | 302° |
| 2026-05-04 20:25 | 49.13486 | 12.89389 | 35940 ft | 418 kts | 302° |
| 2026-05-04 20:26 | 49.16774 | 12.82065 | 35940 ft | 419 kts | 302° |
| 2026-05-04 20:26 | 49.20056 | 12.74733 | 35940 ft | 419 kts | 301° |
| 2026-05-04 20:27 | 49.23331 | 12.67396 | 35945 ft | 418 kts | 302° |
| 2026-05-04 20:27 | 49.26590 | 12.60078 | 35945 ft | 417 kts | 301° |
| 2026-05-04 20:28 | 49.29847 | 12.52743 | 35945 ft | 416 kts | 301° |
| 2026-05-04 20:28 | 49.33065 | 12.45473 | 35945 ft | 416 kts | 301° |
| 2026-05-04 20:29 | 49.36316 | 12.38112 | 35945 ft | 416 kts | 301° |
| 2026-05-04 20:29 | 49.39557 | 12.30750 | 35945 ft | 416 kts | 301° |
| 2026-05-04 20:30 | 49.42771 | 12.23432 | 35945 ft | 416 kts | 301° |
| 2026-05-04 20:30 | 49.46003 | 12.16052 | 35960 ft | 415 kts | 301° |
| 2026-05-04 20:31 | 49.49202 | 12.08727 | 36000 ft | 415 kts | 301° |
| 2026-05-04 20:31 | 49.52396 | 12.01394 | 35999 ft | 415 kts | 301° |
| 2026-05-04 20:32 | 49.55615 | 11.93984 | 35999 ft | 415 kts | 301° |
| 2026-05-04 20:32 | 49.58792 | 11.86646 | 35999 ft | 415 kts | 301° |
| 2026-05-04 20:33 | 49.61995 | 11.79231 | 36000 ft | 415 kts | 301° |
| 2026-05-04 20:33 | 49.65175 | 11.71851 | 36000 ft | 414 kts | 300° |
| 2026-05-04 20:34 | 49.68332 | 11.64500 | 35999 ft | 414 kts | 300° |
| 2026-05-04 20:34 | 49.71502 | 11.57100 | 36000 ft | 414 kts | 300° |
| 2026-05-04 20:35 | 49.74676 | 11.49667 | 35999 ft | 414 kts | 300° |
| 2026-05-04 20:35 | 49.77826 | 11.42273 | 36000 ft | 415 kts | 300° |
| 2026-05-04 20:36 | 49.80998 | 11.34807 | 35999 ft | 416 kts | 300° |
| 2026-05-04 20:36 | 49.84155 | 11.27352 | 35941 ft | 415 kts | 300° |
| 2026-05-04 20:37 | 49.87306 | 11.19897 | 35940 ft | 414 kts | 299° |
| 2026-05-04 20:37 | 49.90435 | 11.12466 | 35940 ft | 414 kts | 299° |
| 2026-05-04 20:38 | 49.93578 | 11.04981 | 35940 ft | 415 kts | 299° |
| 2026-05-04 20:38 | 49.96710 | 10.97505 | 35940 ft | 415 kts | 299° |
| 2026-05-04 20:39 | 49.99859 | 10.89964 | 35940 ft | 414 kts | 299° |
| 2026-05-04 20:39 | 50.02972 | 10.82491 | 35940 ft | 414 kts | 299° |
| 2026-05-04 20:40 | 50.06084 | 10.74997 | 35940 ft | 414 kts | 299° |
| 2026-05-04 20:40 | 50.09196 | 10.67482 | 35940 ft | 414 kts | 298° |
| 2026-05-04 20:41 | 50.12303 | 10.59957 | 35962 ft | 414 kts | 298° |
| 2026-05-04 20:41 | 50.15396 | 10.52445 | 35963 ft | 414 kts | 298° |
| 2026-05-04 20:42 | 50.18493 | 10.44902 | 35963 ft | 414 kts | 298° |
| 2026-05-04 20:42 | 50.21606 | 10.37366 | 35963 ft | 415 kts | 300° |
| 2026-05-04 20:43 | 50.24952 | 10.29987 | 35963 ft | 415 kts | 301° |
| 2026-05-04 20:43 | 50.28248 | 10.22654 | 35966 ft | 410 kts | 300° |
| 2026-05-04 20:44 | 50.31489 | 10.15389 | 35967 ft | 410 kts | 300° |
| 2026-05-04 20:44 | 50.34738 | 10.08096 | 35963 ft | 412 kts | 300° |
| 2026-05-04 20:45 | 50.38014 | 10.00717 | 35967 ft | 412 kts | 300° |
| 2026-05-04 20:45 | 50.41256 | 9.93391 | 35974 ft | 411 kts | 300° |
| 2026-05-04 20:46 | 50.44505 | 9.86028 | 35994 ft | 411 kts | 300° |
| 2026-05-04 20:46 | 50.47742 | 9.78671 | 35994 ft | 412 kts | 300° |
| 2026-05-04 20:47 | 50.50905 | 9.71232 | 35994 ft | 410 kts | 295° |
| 2026-05-04 20:47 | 50.53638 | 9.63325 | 35994 ft | 411 kts | 294° |
| 2026-05-04 20:48 | 50.56419 | 9.55551 | 35994 ft | 411 kts | 295° |
| 2026-05-04 20:48 | 50.59231 | 9.47705 | 35994 ft | 411 kts | 295° |
| 2026-05-04 20:49 | 50.62011 | 9.39933 | 35994 ft | 411 kts | 295° |
| 2026-05-04 20:49 | 50.64827 | 9.32054 | 35680 ft | 415 kts | 294° |
| 2026-05-04 20:50 | 50.66243 | 9.28089 | 35437 ft | 413 kts | 294° |
| 2026-05-04 20:50 | 50.67633 | 9.24197 | 35079 ft | 410 kts | 294° |
| 2026-05-04 20:50 | 50.69030 | 9.20274 | 34406 ft | 410 kts | 294° |
| 2026-05-04 20:50 | 50.70416 | 9.16373 | 33693 ft | 410 kts | 294° |
| 2026-05-04 20:51 | 50.71800 | 9.12471 | 32954 ft | 411 kts | 294° |
| 2026-05-04 20:51 | 50.73196 | 9.08534 | 32184 ft | 412 kts | 294° |
| 2026-05-04 20:51 | 50.74579 | 9.04626 | 31402 ft | 413 kts | 294° |
| 2026-05-04 20:51 | 50.75969 | 9.00692 | 30602 ft | 414 kts | 294° |
| 2026-05-04 20:52 | 50.77366 | 8.96736 | 29974 ft | 410 kts | 294° |
| 2026-05-04 20:52 | 50.78756 | 8.92793 | 29247 ft | 411 kts | 295° |
| 2026-05-04 20:52 | 50.80119 | 8.88922 | 28621 ft | 407 kts | 295° |
| 2026-05-04 20:52 | 50.81484 | 8.85041 | 28011 ft | 403 kts | 295° |
| 2026-05-04 20:53 | 50.82830 | 8.81203 | 27324 ft | 401 kts | 295° |
| 2026-05-04 20:53 | 50.84171 | 8.77374 | 26810 ft | 394 kts | 295° |
| 2026-05-04 20:53 | 50.85481 | 8.73635 | 26291 ft | 390 kts | 295° |
| 2026-05-04 20:53 | 50.86792 | 8.69871 | 25642 ft | 395 kts | 295° |
| 2026-05-04 20:54 | 50.88106 | 8.66098 | 25042 ft | 391 kts | 295° |
| 2026-05-04 20:54 | 50.89421 | 8.62329 | 24449 ft | 387 kts | 295° |
| 2026-05-04 20:54 | 50.90701 | 8.58650 | 23872 ft | 383 kts | 295° |
| 2026-05-04 20:54 | 50.91985 | 8.54952 | 23292 ft | 379 kts | 295° |
| 2026-05-04 20:55 | 50.93236 | 8.51343 | 22726 ft | 376 kts | 295° |
| 2026-05-04 20:55 | 50.94490 | 8.47719 | 22160 ft | 372 kts | 295° |
| 2026-05-04 20:55 | 50.95314 | 8.45338 | 21788 ft | 372 kts | 295° |
| 2026-05-04 20:55 | 50.97212 | 8.39835 | 20929 ft | 374 kts | 295° |
| 2026-05-04 20:56 | 50.98452 | 8.36240 | 20367 ft | 370 kts | 296° |
| 2026-05-04 20:56 | 50.99676 | 8.32685 | 19812 ft | 367 kts | 295° |
| 2026-05-04 20:56 | 51.00878 | 8.29187 | 19265 ft | 363 kts | 295° |
| 2026-05-04 20:56 | 51.02081 | 8.25684 | 18738 ft | 359 kts | 295° |
| 2026-05-04 20:57 | 51.03264 | 8.22229 | 18241 ft | 361 kts | 295° |
| 2026-05-04 20:57 | 51.04464 | 8.18719 | 17690 ft | 361 kts | 295° |
| 2026-05-04 20:57 | 51.05645 | 8.15266 | 17143 ft | 357 kts | 295° |
| 2026-05-04 20:57 | 51.06823 | 8.11818 | 16595 ft | 354 kts | 295° |
| 2026-05-04 20:58 | 51.07999 | 8.08366 | 16045 ft | 350 kts | 295° |
| 2026-05-04 20:58 | 51.09135 | 8.05028 | 15510 ft | 347 kts | 295° |
| 2026-05-04 20:58 | 51.10266 | 8.01701 | 14978 ft | 343 kts | 295° |
| 2026-05-04 20:58 | 51.11409 | 7.98335 | 14436 ft | 339 kts | 295° |
| 2026-05-04 20:59 | 51.12490 | 7.95145 | 13923 ft | 336 kts | 296° |
| 2026-05-04 20:59 | 51.13588 | 7.91903 | 13400 ft | 332 kts | 295° |
| 2026-05-04 20:59 | 51.14682 | 7.88671 | 12878 ft | 329 kts | 295° |
| 2026-05-04 20:59 | 51.15746 | 7.85520 | 12356 ft | 326 kts | 295° |
| 2026-05-04 21:00 | 51.16811 | 7.82363 | 11835 ft | 323 kts | 295° |
| 2026-05-04 21:00 | 51.17868 | 7.79225 | 11324 ft | 319 kts | 295° |
| 2026-05-04 21:00 | 51.18923 | 7.76088 | 10814 ft | 316 kts | 294° |
| 2026-05-04 21:00 | 51.19931 | 7.73094 | 10554 ft | 305 kts | 294° |
| 2026-05-04 21:01 | 51.20919 | 7.70157 | 10297 ft | 295 kts | 294° |
| 2026-05-04 21:01 | 51.21879 | 7.67290 | 9975 ft | 290 kts | 294° |
| 2026-05-04 21:01 | 51.22819 | 7.64477 | 9570 ft | 287 kts | 294° |
| 2026-05-04 21:01 | 51.23751 | 7.61692 | 9176 ft | 285 kts | 294° |
| 2026-05-04 21:02 | 51.24678 | 7.58915 | 8769 ft | 284 kts | 294° |
| 2026-05-04 21:02 | 51.25602 | 7.56147 | 8388 ft | 281 kts | 294° |